Terminal Aerodrome Forecast
Issued by NWS Grand Forks, ND

Home | Current Version | Previous Version | Text Only | Print | Product List | Glossary Off
Versions: 1 2 3 4 5 6 7 8 9 10 11 12 13 14 15 16 17 18 19 20

000
FTUS43 KFGF 251100
TAFFAR
TAF
KFAR 251120Z 2512/2612 22014G22KT P6SM SKC
     FM251500 26016G26KT P6SM SCT050
     FM251700 29017G27KT P6SM BKN035
     FM260100 30009KT P6SM SCT040=

USA.gov is the U.S. government's official web portal to all federal, state and local government web resources and services.